createdAt,value
2022-09-17T00:03:21.101Z,11.52
2022-09-17T00:08:22.731Z,11.44
2022-09-17T00:13:24.762Z,11.51
2022-09-17T00:18:26.789Z,11.53
2022-09-17T00:23:28.490Z,11.62
2022-09-17T00:28:30.103Z,11.63
2022-09-17T00:33:31.704Z,11.69
2022-09-17T00:38:34.207Z,11.81
2022-09-17T00:43:51.664Z,11.81
2022-09-17T00:48:55.234Z,11.83
2022-09-17T00:53:57.130Z,11.87
2022-09-17T00:59:01.575Z,11.86
2022-09-17T01:04:03.852Z,11.84
2022-09-17T01:09:14.499Z,11.85
2022-09-17T01:14:47.961Z,11.81
2022-09-17T01:20:01.691Z,11.83
2022-09-17T01:25:25.062Z,11.85
2022-09-17T01:30:35.544Z,11.85
2022-09-17T01:36:10.879Z,11.91
2022-09-17T01:41:24.866Z,11.89
2022-09-17T01:46:36.037Z,11.92
2022-09-17T01:51:42.352Z,11.91
2022-09-17T01:56:55.089Z,11.89
2022-09-17T02:02:03.672Z,11.92
2022-09-17T02:07:20.177Z,11.95
2022-09-17T02:12:29.781Z,11.86
2022-09-17T02:17:44.380Z,11.81
2022-09-17T02:23:01.644Z,11.83
2022-09-17T02:28:27.093Z,11.80
2022-09-17T02:33:31.989Z,11.84
2022-09-17T02:38:33.661Z,11.79
2022-09-17T02:43:45.295Z,11.82
2022-09-17T02:49:08.830Z,11.73
2022-09-17T02:54:32.299Z,11.75
2022-09-17T03:00:03.112Z,11.70
2022-09-17T03:05:07.553Z,11.81
2022-09-17T03:10:09.402Z,11.75
2022-09-17T03:15:11.122Z,11.76
2022-09-17T03:20:12.848Z,11.66
2022-09-17T03:25:14.734Z,11.60
2022-09-17T03:30:16.388Z,11.62
2022-09-17T03:35:18.145Z,11.62
2022-09-17T03:40:20.093Z,11.66
2022-09-17T03:45:21.881Z,11.64
2022-09-17T03:50:23.664Z,11.65
2022-09-17T03:55:25.333Z,11.55
2022-09-17T04:00:27.374Z,11.59
2022-09-17T04:05:28.973Z,11.49
2022-09-17T04:10:30.581Z,11.55
2022-09-17T04:15:32.209Z,11.58
2022-09-17T04:20:34.296Z,11.47
2022-09-17T04:25:35.886Z,11.44
2022-09-17T04:30:37.636Z,11.34
2022-09-17T04:35:39.286Z,11.32
2022-09-17T04:40:42.408Z,11.30
2022-09-17T04:45:48.137Z,11.27
2022-09-17T04:50:49.887Z,11.08
2022-09-17T04:55:51.600Z,11.12
2022-09-17T05:00:53.240Z,11.09
2022-09-17T05:05:54.902Z,11.12
2022-09-17T05:10:56.668Z,11.22
2022-09-17T05:15:58.431Z,11.05
2022-09-17T05:21:00.078Z,11.10
2022-09-17T05:26:01.743Z,11.12
2022-09-17T05:31:03.825Z,11.25
2022-09-17T05:36:05.821Z,11.16
2022-09-17T05:41:07.534Z,11.23
2022-09-17T05:46:09.309Z,11.21
2022-09-17T05:51:11.740Z,11.38
2022-09-17T05:56:13.446Z,11.33
2022-09-17T06:01:16.320Z,11.17
2022-09-17T06:06:18.176Z,11.51
2022-09-17T06:11:19.787Z,11.66
2022-09-17T06:16:24.749Z,11.54
2022-09-17T06:21:26.426Z,11.54
2022-09-17T06:26:28.041Z,11.53
2022-09-17T06:31:29.690Z,11.38
2022-09-17T06:36:31.307Z,11.46
2022-09-17T06:41:33.299Z,11.37
2022-09-17T06:46:36.630Z,11.25
2022-09-17T06:51:38.322Z,11.31
2022-09-17T06:56:39.919Z,11.20
2022-09-17T07:01:41.837Z,11.25
2022-09-17T07:06:44.041Z,11.42
2022-09-17T07:11:45.847Z,11.43
2022-09-17T07:16:47.507Z,11.29
2022-09-17T07:21:49.318Z,11.22
2022-09-17T07:26:51.711Z,11.19
2022-09-17T07:31:56.190Z,11.30
2022-09-17T07:36:57.780Z,11.41
2022-09-17T07:41:59.876Z,11.62
2022-09-17T07:47:01.566Z,11.75
2022-09-17T07:52:06.485Z,11.99
2022-09-17T07:57:08.188Z,12.18
2022-09-17T08:02:14.107Z,12.25
2022-09-17T08:07:15.845Z,12.31
2022-09-17T08:12:19.510Z,12.24
2022-09-17T08:17:21.099Z,12.52
2022-09-17T08:22:22.688Z,12.72
2022-09-17T08:27:24.268Z,12.83
2022-09-17T08:32:26.501Z,12.55
2022-09-17T08:37:30.851Z,12.61
2022-09-17T08:42:51.635Z,12.45
2022-09-17T08:48:05.126Z,13.08
2022-09-17T08:53:21.253Z,13.62
2022-09-17T08:58:46.928Z,13.95
2022-09-17T09:04:22.021Z,13.56
2022-09-17T09:09:28.495Z,13.36
2022-09-17T09:14:47.290Z,13.71
2022-09-17T09:19:50.073Z,14.24
2022-09-17T09:25:05.711Z,14.60
2022-09-17T09:30:13.513Z,14.15
2022-09-17T09:35:27.539Z,14.12
2022-09-17T09:40:39.308Z,14.29
2022-09-17T09:45:56.888Z,14.70
2022-09-17T09:51:09.812Z,14.36
2022-09-17T09:56:33.097Z,15.46
2022-09-17T10:01:40.985Z,16.65
2022-09-17T10:06:42.810Z,17.71
2022-09-17T10:12:00.239Z,15.34
2022-09-17T10:17:26.794Z,15.42
2022-09-17T10:22:40.094Z,15.57
2022-09-17T10:27:45.510Z,14.47
2022-09-17T10:33:17.516Z,14.16
2022-09-17T10:38:39.352Z,12.70
2022-09-17T10:43:41.770Z,12.22
2022-09-17T10:49:05.999Z,12.57
2022-09-17T10:54:25.993Z,14.51
2022-09-17T10:59:53.235Z,15.72
2022-09-17T11:05:33.070Z,15.71
2022-09-17T11:10:52.770Z,15.01
2022-09-17T11:16:05.342Z,13.43
2022-09-17T11:21:19.708Z,12.76
2022-09-17T11:26:37.534Z,14.29
2022-09-17T11:32:01.048Z,16.73
2022-09-17T11:37:27.053Z,17.06
2022-09-17T11:42:39.349Z,15.03
2022-09-17T11:47:59.006Z,13.26
2022-09-17T11:53:10.674Z,12.62
2022-09-17T11:58:43.904Z,12.66
2022-09-17T12:03:54.623Z,12.68
2022-09-17T12:09:06.273Z,12.72
2022-09-17T12:14:26.969Z,14.73
2022-09-17T12:19:37.604Z,17.02
2022-09-17T12:24:40.441Z,14.56
2022-09-17T12:29:59.658Z,13.94
2022-09-17T12:35:53.082Z,13.87
2022-09-17T12:41:16.068Z,14.28
2022-09-17T12:46:39.123Z,14.87
2022-09-17T12:51:55.431Z,15.51
2022-09-17T12:57:12.157Z,16.02
2022-09-17T13:02:30.952Z,16.62
2022-09-17T13:07:52.718Z,14.52
2022-09-17T13:13:04.991Z,14.49
2022-09-17T13:18:26.166Z,14.06
2022-09-17T13:23:40.645Z,14.11
2022-09-17T13:28:47.444Z,13.35
2022-09-17T13:33:58.286Z,14.62
2022-09-17T13:39:02.201Z,16.21
2022-09-17T13:44:05.809Z,16.78
2022-09-17T13:49:16.435Z,17.76
2022-09-17T13:54:21.124Z,16.48
2022-09-17T13:59:27.047Z,16.38
2022-09-17T14:04:48.436Z,16.58
2022-09-17T14:09:59.495Z,16.96
2022-09-17T14:15:01.193Z,15.42
2022-09-17T14:20:05.531Z,14.89
2022-09-17T14:25:16.998Z,14.58
2022-09-17T14:30:23.665Z,15.04
2022-09-17T14:35:39.828Z,14.87
2022-09-17T14:40:45.910Z,14.58
2022-09-17T14:45:52.054Z,14.51
2022-09-17T14:51:17.384Z,14.23
2022-09-17T14:56:22.264Z,14.41
2022-09-17T15:01:27.010Z,14.10
2022-09-17T15:06:28.625Z,14.49
2022-09-17T15:11:35.454Z,14.56
2022-09-17T15:16:37.793Z,15.03
2022-09-17T15:21:44.690Z,15.20
2022-09-17T15:26:49.661Z,15.21
2022-09-17T15:31:51.420Z,14.94
2022-09-17T15:37:21.647Z,14.74
2022-09-17T15:42:30.067Z,14.55
2022-09-17T15:48:09.057Z,14.60
2022-09-17T15:53:14.570Z,14.74
2022-09-17T15:58:24.945Z,14.82
2022-09-17T16:03:39.431Z,14.69
2022-09-17T16:08:42.528Z,14.48
2022-09-17T16:13:51.177Z,14.48
2022-09-17T16:18:52.963Z,14.33
2022-09-17T16:23:54.670Z,14.08
2022-09-17T16:29:02.207Z,14.03
2022-09-17T16:34:03.837Z,13.84
2022-09-17T16:39:05.466Z,13.68
2022-09-17T16:44:07.195Z,13.55
2022-09-17T16:49:08.810Z,13.51
2022-09-17T16:54:10.452Z,13.44
2022-09-17T16:59:12.077Z,13.43
2022-09-17T17:04:13.675Z,13.37
2022-09-17T17:09:15.402Z,13.18
2022-09-17T17:14:17.014Z,13.08
2022-09-17T17:19:18.603Z,13.03
2022-09-17T17:24:20.249Z,12.80
2022-09-17T17:29:22.218Z,12.76
2022-09-17T17:34:23.957Z,12.66
2022-09-17T17:39:25.615Z,12.51
2022-09-17T17:44:27.197Z,12.42
2022-09-17T17:49:28.785Z,12.25
2022-09-17T17:54:30.536Z,12.18
2022-09-17T17:59:32.242Z,12.01
2022-09-17T18:04:33.883Z,11.90
2022-09-17T18:09:35.898Z,11.69
2022-09-17T18:14:37.493Z,11.62
2022-09-17T18:19:39.099Z,11.45
2022-09-17T18:24:40.707Z,11.35
2022-09-17T18:29:42.340Z,11.29
2022-09-17T18:34:43.924Z,11.19
2022-09-17T18:39:58.028Z,11.16
2022-09-17T18:45:00.316Z,11.02
2022-09-17T18:50:01.928Z,10.99
2022-09-17T18:55:03.661Z,11.01
2022-09-17T19:00:08.247Z,10.99
2022-09-17T19:05:09.894Z,11.08
2022-09-17T19:10:11.511Z,11.18
2022-09-17T19:15:13.139Z,11.28
2022-09-17T19:20:15.071Z,11.35
2022-09-17T19:25:16.803Z,11.29
2022-09-17T19:30:18.470Z,11.33
2022-09-17T19:35:20.096Z,11.35
2022-09-17T19:40:21.788Z,11.41
2022-09-17T19:45:24.503Z,11.30
2022-09-17T19:50:26.126Z,11.04
2022-09-17T19:55:27.717Z,10.83
2022-09-17T20:00:29.962Z,10.52
2022-09-17T20:05:31.682Z,10.45
2022-09-17T20:10:37.382Z,10.52
2022-09-17T20:15:39.039Z,10.36
2022-09-17T20:20:43.761Z,10.28
2022-09-17T20:25:51.956Z,10.11
2022-09-17T20:31:04.869Z,10.05
2022-09-17T20:36:10.843Z,10.02
2022-09-17T20:41:13.742Z,9.95
2022-09-17T20:46:16.872Z,9.97
2022-09-17T20:51:20.888Z,9.89
2022-09-17T20:56:28.514Z,9.82
2022-09-17T21:01:34.467Z,9.85
2022-09-17T21:06:38.991Z,9.87
2022-09-17T21:11:40.654Z,9.89
2022-09-17T21:16:42.425Z,9.98
2022-09-17T21:21:44.540Z,10.01
2022-09-17T21:26:46.219Z,10.01
2022-09-17T21:31:48.053Z,10.03
2022-09-17T21:36:51.543Z,10.11
2022-09-17T21:41:53.364Z,10.13
2022-09-17T21:46:57.574Z,10.15
2022-09-17T21:51:59.332Z,9.99
2022-09-17T21:57:01.077Z,9.96
2022-09-17T22:02:03.989Z,9.95
2022-09-17T22:07:05.642Z,9.89
2022-09-17T22:12:07.635Z,9.84
2022-09-17T22:17:09.271Z,9.72
2022-09-17T22:22:10.853Z,9.70
2022-09-17T22:27:12.473Z,9.68
2022-09-17T22:32:14.073Z,9.71
2022-09-17T22:37:15.829Z,9.72
2022-09-17T22:42:17.430Z,9.74
2022-09-17T22:47:19.009Z,9.65
2022-09-17T22:52:20.607Z,9.61
2022-09-17T22:57:22.203Z,9.24
2022-09-17T23:02:23.845Z,9.15
2022-09-17T23:07:25.464Z,9.17
2022-09-17T23:12:27.100Z,9.22
2022-09-17T23:17:29.545Z,9.12
2022-09-17T23:22:31.421Z,9.11
2022-09-17T23:27:33.025Z,9.08
2022-09-17T23:32:34.615Z,9.13
2022-09-17T23:37:36.256Z,9.14
2022-09-17T23:42:37.979Z,9.24
2022-09-17T23:47:39.593Z,9.33
2022-09-17T23:52:41.383Z,9.32
2022-09-17T23:57:42.973Z,9.36
